Airfield :







YOU CAN JOIN US ON...

 
LOGIN :

Register | Disclaimer

   EN    FR    IT 

 









Legend :    VFR   Marginal VFR   IFR   Intensive IFR   Very Intensive IFR
Visi :
Ceiling :
>= 8 km
>= 3000ft
5 to 8 km
1000 to 3000 ft
1500m to 5 km
500 to 1000 ft
800 to 1500m
200 to 500 ft
< 800m
< 200 ft
Symbols :   Thunderstorms  Fog  Heavy snow  Heavy precipitations  Wind > 20 kt







- Airport Elevation : 1194 ft


KPSF - Pittsfield Municipal

CURRENT METAR :
  • 221354Z AUTO VRB05KT 10SM FEW030 18/10 A3008 RMK AO2 SLP172 T01780100

EXPIRED METARs :
  • 221254Z AUTO 02005KT 10SM CLR 16/10 A3010 RMK AO2 SLP177 T01560100
  • 221209Z AUTO 36004KT 10SM SCT017 14/11 A3010 RMK AO2 T01390106
  • 221154Z AUTO 04004KT 10SM FEW007 BKN017 13/11 A3010 RMK AO2 SLP179 T01330106 10133 20083 53006

TAF KPSF
Valid from the 22 at 12:00 until the 23 at 12:00 UTC


221122Z 2212/2312 VRB04KT P6SM SCT015 BKN120
TEMPO 2212/2214 BKN010 OVC120
FM221400 36009G14KT P6SM BKN035
FM222300 36007KT P6SM OVC025
PROB30 2223/2305 4SM -SHRA BR OVC015
KZBW FIR / North America



MET'MAP, your aeronautical weather chart ! - Copyright ORBIFLY December 2007 - Disclaimer

ORBIFLY MET'MAP TEAM :

Programming & Development : Alexandra Zaïnal
Concept & Development : Baudouin d'Aumeries
Co-Development & Prog : Marc-Olivier Méhu
Technical & hardware support : Manuel Goepfert

Contact : metmap@orbifly.com




SOURCES & CREDITS :

   NOAA